createdAt,value
2022-10-20T00:03:34.500Z,102210.55
2022-10-20T00:08:58.730Z,102211.42
2022-10-20T00:14:22.422Z,102208.84
2022-10-20T00:19:45.151Z,102213.23
2022-10-20T00:25:07.292Z,102205.39
2022-10-20T00:30:29.657Z,102205.47
2022-10-20T00:35:52.694Z,102209.04
2022-10-20T00:41:16.786Z,102192.44
2022-10-20T00:46:47.788Z,102191.55
2022-10-20T00:52:11.683Z,102183.63
2022-10-20T00:57:35.178Z,102181.92
2022-10-20T01:03:00.199Z,102185.55
2022-10-20T01:08:22.423Z,102175.03
2022-10-20T01:13:58.343Z,102169.70
2022-10-20T01:19:54.783Z,102147.73
2022-10-20T01:25:44.139Z,102153.02
2022-10-20T01:31:13.651Z,102157.52
2022-10-20T01:36:33.463Z,102152.20
2022-10-20T01:42:05.863Z,102146.86
2022-10-20T01:47:29.612Z,102145.95
2022-10-20T01:52:51.728Z,102144.27
2022-10-20T01:58:45.940Z,102145.17
2022-10-20T02:04:14.377Z,102139.05
2022-10-20T02:09:47.057Z,102130.29
2022-10-20T02:15:10.940Z,102130.31
2022-10-20T02:20:34.823Z,102127.61
2022-10-20T02:26:00.127Z,102127.59
2022-10-20T02:31:23.884Z,102125.99
2022-10-20T02:36:49.977Z,102125.21
2022-10-20T02:42:12.761Z,102121.65
2022-10-20T02:47:35.692Z,102127.02
2022-10-20T02:52:58.253Z,102133.20
2022-10-20T02:58:20.398Z,102123.46
2022-10-20T03:03:42.541Z,102121.75
2022-10-20T03:09:04.715Z,102125.34
2022-10-20T03:14:26.955Z,102128.92
2022-10-20T03:19:49.059Z,102139.47
2022-10-20T03:25:11.417Z,102139.51
2022-10-20T03:30:34.407Z,102139.49
2022-10-20T03:35:56.519Z,102144.78
2022-10-20T03:41:18.945Z,102156.21
2022-10-20T03:46:41.053Z,102150.97
2022-10-20T03:52:03.201Z,102156.21
2022-10-20T03:57:26.511Z,102154.52
2022-10-20T04:02:54.699Z,102155.37
2022-10-20T04:08:16.892Z,102152.75
2022-10-20T04:13:39.605Z,102145.72
2022-10-20T04:19:02.690Z,102142.17
2022-10-20T04:24:25.775Z,102150.96
2022-10-20T04:29:48.015Z,102147.42
2022-10-20T04:35:10.187Z,102152.73
2022-10-20T04:40:32.969Z,102150.09
2022-10-20T04:45:56.787Z,102142.22
2022-10-20T04:51:22.374Z,102134.34
2022-10-20T04:56:44.599Z,102132.58
2022-10-20T05:02:06.854Z,102142.25
2022-10-20T05:07:29.743Z,102140.50
2022-10-20T05:12:51.867Z,102141.36
2022-10-20T05:18:13.983Z,102139.63
2022-10-20T05:23:36.553Z,102140.50
2022-10-20T05:29:02.135Z,102141.40
2022-10-20T05:34:25.475Z,102143.16
2022-10-20T05:45:11.746Z,102153.66
2022-10-20T05:50:33.925Z,102160.69
2022-10-20T05:55:56.150Z,102165.06
2022-10-20T06:01:49.403Z,102168.56
2022-10-20T06:07:12.552Z,102181.69
2022-10-20T06:12:34.855Z,102182.59
2022-10-20T06:17:58.926Z,102183.42
2022-10-20T06:23:21.070Z,102184.31
2022-10-20T06:28:44.778Z,102185.13
2022-10-20T06:34:07.525Z,102191.18
2022-10-20T06:39:32.938Z,102190.20
2022-10-20T06:44:56.932Z,102198.86
2022-10-20T06:50:19.871Z,102204.01
2022-10-20T06:55:42.015Z,102207.41
2022-10-20T07:01:23.555Z,102202.01
2022-10-20T07:06:52.682Z,102207.99
2022-10-20T07:12:15.450Z,102220.02
2022-10-20T07:17:37.601Z,102225.89
2022-10-20T07:23:00.161Z,102227.31
2022-10-20T07:28:22.728Z,102227.88
2022-10-20T07:33:56.543Z,102229.31
2022-10-20T07:39:14.717Z,102228.02
2022-10-20T07:44:36.851Z,102227.56
2022-10-20T07:49:59.995Z,102225.28
2022-10-20T07:55:38.068Z,102230.19
2022-10-20T08:00:46.506Z,102230.69
2022-10-20T08:06:08.716Z,102231.20
2022-10-20T08:11:31.890Z,102223.05
2022-10-20T08:16:58.945Z,102233.09
2022-10-20T08:22:21.109Z,102229.38
2022-10-20T08:27:43.322Z,102223.27
2022-10-20T08:33:07.631Z,102218.22
2022-10-20T08:38:30.291Z,102219.04
2022-10-20T08:43:55.795Z,102215.08
2022-10-20T08:49:21.235Z,102208.84
2022-10-20T08:54:45.273Z,102209.69
2022-10-20T09:00:21.369Z,102210.11
2022-10-20T09:05:47.495Z,102200.87
2022-10-20T09:11:12.176Z,102204.47
2022-10-20T09:16:58.851Z,102184.22
2022-10-20T09:22:09.890Z,102184.08
2022-10-20T09:27:43.313Z,102177.36
2022-10-20T09:33:06.366Z,102177.55
2022-10-20T09:38:39.400Z,102185.42
2022-10-20T09:44:20.457Z,102178.70
2022-10-20T09:49:46.099Z,102167.53
2022-10-20T09:55:24.548Z,102169.08
2022-10-20T10:00:53.331Z,102169.81
2022-10-20T10:06:35.341Z,102163.80
2022-10-20T10:11:59.190Z,102164.27
2022-10-20T10:17:23.515Z,102165.18
2022-10-20T10:22:48.970Z,102159.89
2022-10-20T10:33:49.647Z,102143.63
2022-10-20T10:39:14.966Z,102142.30
2022-10-20T10:45:11.605Z,102135.13
2022-10-20T10:50:58.625Z,102125.42
2022-10-20T10:56:37.336Z,102117.09
2022-10-20T11:02:28.134Z,102105.70
2022-10-20T11:08:01.459Z,102102.70
2022-10-20T11:13:52.158Z,102094.83
2022-10-20T11:19:54.774Z,102085.50
2022-10-20T11:25:38.031Z,102078.48
2022-10-20T11:31:00.386Z,102069.77
2022-10-20T11:36:25.872Z,102065.35
2022-10-20T11:42:01.139Z,102068.05
2022-10-20T11:47:28.328Z,102050.05
2022-10-20T11:53:43.805Z,102039.86
2022-10-20T11:59:32.041Z,102033.81
2022-10-20T12:05:47.355Z,102027.98
2022-10-20T12:11:25.145Z,102016.87
2022-10-20T12:17:12.674Z,102003.34
2022-10-20T12:22:45.355Z,102007.89
2022-10-20T12:34:17.240Z,102009.16
2022-10-20T12:39:41.960Z,102001.45
2022-10-20T12:45:06.928Z,101990.23
2022-10-20T12:50:50.387Z,101981.27
2022-10-20T12:56:28.003Z,101970.98
2022-10-20T13:02:19.256Z,101969.44
2022-10-20T13:08:04.686Z,101966.86
2022-10-20T13:19:00.462Z,101959.12
2022-10-20T13:24:44.810Z,101951.00
2022-10-20T13:30:05.928Z,101952.98
2022-10-20T13:35:35.217Z,101948.98
2022-10-20T13:41:23.822Z,101942.30
2022-10-20T13:52:50.763Z,101942.78
2022-10-20T13:58:20.772Z,101945.22
2022-10-20T14:03:48.389Z,101908.18
2022-10-20T14:09:18.994Z,101908.18
2022-10-20T14:14:43.965Z,101921.44
2022-10-20T14:20:18.143Z,101905.69
2022-10-20T14:25:42.230Z,101912.06
2022-10-20T14:31:16.790Z,101904.84
2022-10-20T14:36:46.057Z,101906.72
2022-10-20T14:42:10.416Z,101903.23
2022-10-20T14:47:39.473Z,101904.63
2022-10-20T14:53:01.933Z,101895.87
2022-10-20T14:58:47.970Z,101897.94
2022-10-20T15:04:33.466Z,101888.91
2022-10-20T15:10:08.682Z,101874.80
2022-10-20T15:15:43.620Z,101872.05
2022-10-20T15:21:12.189Z,101871.78
2022-10-20T15:26:34.624Z,101866.20
2022-10-20T15:31:57.026Z,101853.02
2022-10-20T15:37:19.358Z,101842.33
2022-10-20T15:42:41.679Z,101838.19
2022-10-20T15:48:03.932Z,101839.85
2022-10-20T15:53:26.295Z,101842.81
2022-10-20T15:58:50.235Z,101837.52
2022-10-20T16:04:27.844Z,101838.10
2022-10-20T16:09:50.341Z,101831.87
2022-10-20T16:15:12.926Z,101837.41
2022-10-20T16:20:35.374Z,101839.41
2022-10-20T16:26:01.023Z,101837.80
2022-10-20T16:31:30.536Z,101838.47
2022-10-20T16:36:52.840Z,101836.30
2022-10-20T16:42:15.220Z,101847.30
2022-10-20T16:47:38.996Z,101852.16
2022-10-20T16:53:02.363Z,101849.48
2022-10-20T16:58:25.074Z,101845.41
2022-10-20T17:03:49.138Z,101854.78
2022-10-20T17:09:12.634Z,101849.09
2022-10-20T17:14:35.507Z,101858.21
2022-10-20T17:19:57.828Z,101855.05
2022-10-20T17:25:21.209Z,101846.61
2022-10-20T17:30:45.216Z,101845.23
2022-10-20T17:36:08.787Z,101837.14
2022-10-20T17:41:32.526Z,101840.09
2022-10-20T17:46:55.546Z,101844.79
2022-10-20T17:52:17.941Z,101847.11
2022-10-20T17:57:42.173Z,101839.52
2022-10-20T18:03:08.433Z,101834.64
2022-10-20T18:08:31.314Z,101829.66
2022-10-20T18:13:54.256Z,101825.16
2022-10-20T18:19:20.080Z,101818.12
2022-10-20T18:24:43.434Z,101800.43
2022-10-20T18:30:05.734Z,101792.45
2022-10-20T18:35:28.992Z,101795.91
2022-10-20T18:40:53.077Z,101788.86
2022-10-20T18:46:16.433Z,101787.88
2022-10-20T18:51:39.440Z,101796.78
2022-10-20T18:57:03.638Z,101795.96
2022-10-20T19:02:29.005Z,101786.37
2022-10-20T19:07:51.838Z,101791.00
2022-10-20T19:13:16.094Z,101793.16
2022-10-20T19:18:43.273Z,101771.20
2022-10-20T19:24:16.081Z,101783.94
2022-10-20T19:29:38.795Z,101780.36
2022-10-20T19:35:02.232Z,101774.89
2022-10-20T19:40:27.644Z,101773.37
2022-10-20T19:45:49.906Z,101777.97
2022-10-20T19:51:12.994Z,101776.59
2022-10-20T19:56:35.846Z,101768.89
2022-10-20T20:01:58.808Z,101739.73
2022-10-20T20:07:21.564Z,101723.00
2022-10-20T20:12:43.861Z,101717.73
2022-10-20T20:18:06.556Z,101699.16
2022-10-20T20:23:40.761Z,101686.80
2022-10-20T20:28:54.484Z,101685.92
2022-10-20T20:34:17.000Z,101682.23
2022-10-20T20:39:39.923Z,101673.15
2022-10-20T20:45:03.163Z,101663.50
2022-10-20T20:50:26.047Z,101680.08
2022-10-20T20:55:48.355Z,101688.79
2022-10-20T21:01:22.610Z,101681.09
2022-10-20T21:07:01.738Z,101678.88
2022-10-20T21:17:33.154Z,101664.30
2022-10-20T21:22:55.881Z,101667.31
2022-10-20T21:28:18.202Z,101672.88
2022-10-20T21:33:41.221Z,101668.63
2022-10-20T21:39:04.719Z,101658.08
2022-10-20T21:44:28.219Z,101652.98
2022-10-20T21:49:50.497Z,101645.07
2022-10-20T21:55:13.351Z,101633.03
2022-10-20T22:00:36.113Z,101618.84
2022-10-20T22:05:59.148Z,101619.77
2022-10-20T22:11:26.264Z,101625.98
2022-10-20T22:16:51.989Z,101619.86
2022-10-20T22:22:14.454Z,101617.31
2022-10-20T22:27:42.312Z,101621.89
2022-10-20T22:33:00.860Z,101620.22
2022-10-20T22:38:23.197Z,101620.16
2022-10-20T22:43:46.646Z,101619.44
2022-10-20T22:49:09.049Z,101616.87
2022-10-20T22:54:31.459Z,101616.98
2022-10-20T22:59:53.904Z,101621.38
2022-10-20T23:05:16.285Z,101604.84
2022-10-20T23:10:38.628Z,101611.86
2022-10-20T23:16:03.255Z,101613.88
2022-10-20T23:21:26.814Z,101613.16
2022-10-20T23:26:49.064Z,101617.50
2022-10-20T23:32:11.288Z,101618.73
2022-10-20T23:37:33.432Z,101604.66
2022-10-20T23:42:55.655Z,101592.52
2022-10-20T23:48:17.806Z,101567.72
2022-10-20T23:53:40.303Z,101569.31
2022-10-20T23:59:02.468Z,101556.21
